< < Back
Terminal Aerodrome Forecast


Current Version              Previous Versions:   1  2  3  4  5  6  7  8  9  

Terminal Aerodrome Forecast

212
FTUS42 KTAE 010521
TAFABY
TAF
KABY 010521Z 0106/0206 10003KT P6SM FEW050 SCT250=



Latest METAR

953
SAUS70 KWBC 011000 RRO
MTRABY
METAR KABY 010953Z AUTO 00000KT 10SM CLR 22/21 A3008 RMK AO2 SLP184
T02220206


USA.gov is the U.S. government's official web portal to all federal, state and local government web resources and services.